Startpagina
METAR-TAF:

METAR-TAF

Vliegvelden :

Batajnica, Servië

breedte: 44-56-07N, lengte: 020-15-27E, hoogte: 86 m

Actueel weer

Dit bericht is 19 minuten geleden gemaakt, om 10:00 UTC
Wind 6 kt uit het noordwesten, variërend tussen het westzuidwesten en het noorden
Temperatuur 12°C
Vochtigheid 44%
Druk 1022 hPa
Zicht 10 km of meer
Weinig wolken op 4000 ft

METAR: LYBT 191000Z 31006KT 250V360 9999 FEW040 12/00 Q1022 NOSIG

Tijdstip: 11:19 (10:19 UTC)

Verwachting

Dit bericht is 5 uur en het 19 minuten geleden gemaakt, om 05:00 UTC
Verwachting geldig van 19 om 06 UTC tot 20 om 06 UTC
Wind 8 kt uit het westnoordwesten
Zicht 10 km of meer
Verspreide wolken op 4000 ft
Tijdelijke
van 19 om 12 UTC tot 19 om 18 UTC
Wind 18 kt uit het noordnoordwesten
Tijdelijke
van 20 om 01 UTC tot 20 om 06 UTC
Zicht: 5000 m
regen

TAF: LYBT 190500Z 1906/2006 30008KT 9999 SCT040 TX12/1913Z TN05/2005Z TEMPO 1912/1918 34018KT TEMPO 2001/2006 5000 RA

Waarnemingen en weersverwachtingen van meer dan 4000 vliegvelden (METAR en TAF).

De beschikbare stations zijn de gele en rode punten op de kaart.

Ga met uw muis naar het station om de naam te zien.

Klik dan om waarnemingen en weersverwachtingen te zien.

kaart wijzigen: klik op de groene knoppen met een zwart kruis om in te zoomen, op de groene knop met een streepje om uit te zoomen of op de groene pijlen voor aangrenzende kaarten.


METAR-TAF: